createdAt,value
2018-10-18T00:01:23.091Z,73.40
2018-10-18T00:03:50.600Z,75.50
2018-10-18T00:06:18.218Z,72.40
2018-10-18T00:08:45.693Z,74.50
2018-10-18T00:11:13.200Z,75.70
2018-10-18T00:13:40.708Z,79.00
2018-10-18T00:16:08.330Z,84.40
2018-10-18T00:48:05.519Z,66.00
2018-10-18T00:50:33.082Z,66.20
2018-10-18T00:53:00.785Z,66.20
2018-10-18T00:55:28.424Z,67.40
2018-10-18T00:57:55.937Z,66.80
2018-10-18T01:00:23.464Z,68.00
2018-10-18T01:02:50.992Z,67.00
2018-10-18T01:05:18.512Z,67.80
2018-10-18T01:07:46.422Z,68.90
2018-10-18T01:10:14.006Z,69.30
2018-10-18T01:15:09.021Z,90.60
2018-10-18T01:17:36.566Z,89.50
2018-10-18T01:22:32.288Z,84.50
2018-10-18T01:24:59.876Z,79.90
2018-10-18T01:27:27.405Z,79.00
2018-10-18T01:29:54.977Z,77.30
2018-10-18T01:34:49.988Z,78.30
2018-10-18T01:39:45.013Z,82.10
2018-10-18T01:42:12.530Z,85.80
2018-10-18T01:47:07.613Z,81.50
2018-10-18T01:52:02.693Z,76.60
2018-10-18T01:54:30.238Z,86.80
2018-10-18T01:59:25.208Z,87.00
2018-10-18T02:01:52.807Z,85.10
2018-10-18T02:09:15.200Z,77.20
2018-10-18T02:11:42.761Z,81.40
2018-10-18T02:14:10.293Z,91.20
2018-10-18T02:16:37.836Z,87.50
2018-10-18T02:21:32.932Z,87.10
2018-10-18T02:26:28.135Z,87.80
2018-10-18T02:28:55.711Z,87.00
2018-10-18T02:31:23.300Z,81.20
2018-10-18T02:33:50.871Z,81.00
2018-10-18T02:36:18.402Z,79.80
2018-10-18T02:38:45.933Z,90.20
2018-10-18T02:43:40.934Z,82.50
2018-10-18T02:46:08.486Z,84.10
2018-10-18T02:51:03.732Z,90.00
2018-10-18T02:53:31.282Z,80.40
2018-10-18T02:55:58.866Z,81.50
2018-10-18T03:00:53.983Z,84.10
2018-10-18T03:03:21.503Z,88.90
2018-10-18T03:05:49.032Z,84.80
2018-10-18T03:08:16.535Z,77.60
2018-10-18T03:10:44.060Z,79.10
2018-10-18T03:18:07.262Z,86.30
2018-10-18T03:20:34.739Z,86.70
2018-10-18T03:23:02.595Z,78.70
2018-10-18T03:25:30.156Z,81.80
2018-10-18T03:27:57.685Z,88.70
2018-10-18T03:30:25.275Z,79.20
2018-10-18T03:32:52.791Z,89.00
2018-10-18T03:35:20.414Z,89.90
2018-10-18T03:37:47.940Z,87.90
2018-10-18T03:45:10.391Z,81.20
2018-10-18T03:47:37.943Z,77.10
2018-10-18T03:50:05.526Z,86.10
2018-10-18T03:52:33.077Z,84.70
2018-10-18T03:55:00.689Z,76.50
2018-10-18T03:59:55.790Z,84.70
2018-10-18T04:02:23.337Z,85.30
2018-10-18T04:04:50.863Z,75.80
2018-10-18T04:07:18.424Z,73.50
2018-10-18T04:09:46.026Z,79.40
2018-10-18T04:12:13.654Z,79.90
2018-10-18T04:17:08.905Z,81.80
2018-10-18T04:19:36.441Z,75.00
2018-10-18T04:24:31.474Z,77.80
2018-10-18T04:29:26.821Z,75.00
2018-10-18T04:31:54.358Z,77.70
2018-10-18T04:34:21.999Z,72.90
2018-10-18T04:36:49.633Z,71.60
2018-10-18T04:39:17.165Z,69.30
2018-10-18T04:41:44.710Z,77.00
2018-10-18T04:49:08.820Z,72.30
2018-10-18T04:54:03.799Z,70.20
2018-10-18T04:56:32.021Z,75.80
2018-10-18T04:58:59.589Z,68.60
2018-10-18T05:01:27.394Z,70.10
2018-10-18T05:03:55.131Z,73.30
2018-10-18T05:08:50.168Z,70.50
2018-10-18T05:11:17.766Z,70.00
2018-10-18T05:13:45.272Z,70.10
2018-10-18T05:18:40.293Z,72.00
2018-10-18T05:23:35.254Z,75.50
2018-10-18T05:26:02.883Z,67.60
2018-10-18T05:33:25.841Z,69.10
2018-10-18T05:35:53.416Z,69.20
2018-10-18T05:38:20.922Z,73.70
2018-10-18T05:43:16.001Z,70.40
2018-10-18T05:50:38.419Z,73.60
2018-10-18T05:53:06.122Z,71.00
2018-10-18T05:55:33.524Z,70.90
2018-10-18T05:58:01.194Z,78.00
2018-10-18T06:00:28.735Z,71.10
2018-10-18T06:05:24.756Z,75.20
2018-10-18T06:17:48.928Z,76.30
2018-10-18T06:20:16.902Z,70.50
2018-10-18T06:22:44.515Z,70.80
2018-10-18T06:27:40.136Z,69.70
2018-10-18T06:39:59.623Z,69.60
2018-10-18T06:42:28.128Z,75.30
2018-10-18T06:44:55.717Z,75.90
2018-10-18T06:47:23.363Z,72.60
2018-10-18T06:54:47.053Z,76.00
2018-10-18T06:59:42.286Z,71.50
2018-10-18T07:02:09.781Z,70.80
2018-10-18T07:04:37.251Z,76.60
2018-10-18T07:07:05.523Z,69.30
2018-10-18T07:12:00.506Z,74.40
2018-10-18T07:14:28.032Z,76.10
2018-10-18T07:21:50.545Z,73.00
2018-10-18T07:24:18.213Z,68.40
2018-10-18T07:31:40.581Z,73.10
2018-10-18T07:34:08.172Z,70.80
2018-10-18T07:36:35.741Z,72.10
2018-10-18T07:39:05.598Z,67.00
2018-10-18T07:41:33.183Z,72.20
2018-10-18T07:44:00.700Z,72.80
2018-10-18T07:48:55.699Z,72.00
2018-10-18T07:53:50.671Z,70.80
2018-10-18T07:58:45.650Z,65.70
2018-10-18T08:03:40.601Z,72.60
2018-10-18T08:06:08.112Z,69.90
2018-10-18T08:08:35.639Z,69.00
2018-10-18T08:11:03.562Z,67.90
2018-10-18T08:13:31.032Z,63.50
2018-10-18T08:15:58.612Z,65.60
2018-10-18T08:20:53.605Z,62.30
2018-10-18T08:25:48.565Z,61.90
2018-10-18T08:28:16.123Z,64.70
2018-10-18T08:30:43.645Z,66.30
2018-10-18T08:33:11.250Z,68.20
2018-10-18T08:35:38.778Z,65.00
2018-10-18T08:40:33.772Z,63.40
2018-10-18T08:43:01.397Z,59.60
2018-10-18T08:47:56.343Z,55.30
2018-10-18T08:50:23.933Z,54.30
2018-10-18T08:52:51.482Z,54.00
2018-10-18T08:55:19.100Z,54.50
2018-10-18T08:57:46.580Z,58.50
2018-10-18T09:00:14.111Z,57.50
2018-10-18T09:02:42.240Z,54.10
2018-10-18T09:05:10.235Z,52.70
2018-10-18T09:07:37.837Z,55.30
2018-10-18T09:10:06.246Z,54.70
2018-10-18T09:12:33.832Z,54.50
2018-10-18T09:15:01.408Z,57.20
2018-10-18T09:17:28.909Z,50.20
2018-10-18T09:19:56.391Z,53.30
2018-10-18T09:22:23.917Z,52.50
2018-10-18T09:24:51.430Z,50.80
2018-10-18T09:27:19.019Z,50.50
2018-10-18T09:29:46.599Z,50.60
2018-10-18T09:32:14.122Z,49.50
2018-10-18T09:34:41.704Z,51.40
2018-10-18T09:37:09.320Z,48.40
2018-10-18T09:39:36.840Z,51.80
2018-10-18T09:42:04.996Z,47.60
2018-10-18T09:44:32.563Z,52.00
2018-10-18T09:47:00.149Z,47.90
2018-10-18T09:49:27.739Z,54.20
2018-10-18T09:54:22.752Z,51.90
2018-10-18T09:56:50.350Z,45.90
2018-10-18T09:59:17.969Z,46.90
2018-10-18T10:01:51.929Z,48.60
2018-10-18T10:04:19.487Z,49.40
2018-10-18T10:06:46.954Z,47.60
2018-10-18T10:09:14.520Z,43.50
2018-10-18T10:19:04.795Z,39.90
2018-10-18T10:21:32.301Z,40.40
2018-10-18T10:26:27.382Z,48.20
2018-10-18T10:31:22.396Z,42.40
2018-10-18T10:33:50.092Z,41.60
2018-10-18T10:36:17.625Z,43.80
2018-10-18T10:38:45.130Z,36.30
2018-10-18T10:41:12.713Z,71.60
2018-10-18T10:48:35.227Z,47.70
2018-10-18T10:51:02.793Z,38.80
2018-10-18T10:53:30.268Z,33.20
2018-10-18T10:55:57.856Z,32.10
2018-10-18T11:01:17.627Z,32.80
2018-10-18T11:03:45.673Z,30.50
2018-10-18T11:06:13.459Z,31.90
2018-10-18T11:11:12.672Z,34.80
2018-10-18T11:16:07.948Z,28.60
2018-10-18T11:21:04.873Z,28.70
2018-10-18T11:23:33.301Z,27.20
2018-10-18T11:26:00.964Z,26.60
2018-10-18T11:28:28.569Z,26.70
2018-10-18T11:30:56.101Z,28.80
2018-10-18T11:33:23.691Z,25.80
2018-10-18T11:35:51.212Z,27.80
2018-10-18T11:38:18.998Z,29.40
2018-10-18T11:43:13.883Z,32.70
2018-10-18T11:45:41.480Z,36.00
2018-10-18T11:48:10.665Z,37.90
2018-10-18T11:50:38.221Z,38.10
2018-10-18T11:55:34.030Z,32.60
2018-10-18T11:58:01.523Z,36.60
2018-10-18T12:05:24.028Z,33.30
2018-10-18T12:10:19.248Z,31.50
2018-10-18T12:15:14.289Z,36.30
2018-10-18T12:17:41.841Z,37.80
2018-10-18T12:20:13.434Z,39.30
2018-10-18T12:22:41.109Z,40.50
2018-10-18T12:25:09.261Z,41.50
2018-10-18T12:30:05.200Z,41.90
2018-10-18T12:32:32.720Z,41.60
2018-10-18T12:35:00.311Z,41.60
2018-10-18T12:37:27.851Z,41.70
2018-10-18T12:39:55.391Z,41.20
2018-10-18T12:42:23.073Z,40.90
2018-10-18T12:44:50.617Z,40.70
2018-10-18T12:47:18.175Z,40.50
2018-10-18T12:49:45.667Z,40.40
2018-10-18T12:52:13.910Z,40.40
2018-10-18T12:54:41.542Z,40.50
2018-10-18T12:57:10.650Z,40.30
2018-10-18T12:59:38.352Z,40.40
2018-10-18T13:02:06.134Z,40.50
2018-10-18T13:04:35.007Z,40.70
2018-10-18T13:07:03.062Z,41.50
2018-10-18T13:09:30.628Z,42.30
2018-10-18T13:11:58.431Z,43.20
2018-10-18T13:14:26.556Z,43.70
2018-10-18T13:16:54.082Z,44.60
2018-10-18T13:19:21.779Z,44.70
2018-10-18T13:21:49.334Z,45.10
2018-10-18T13:24:17.033Z,46.10
2018-10-18T13:26:44.533Z,46.60
2018-10-18T13:29:12.100Z,47.00
2018-10-18T13:31:39.640Z,47.40
2018-10-18T13:34:07.357Z,47.90
2018-10-18T13:36:34.826Z,47.90
2018-10-18T13:39:02.929Z,47.70
2018-10-18T13:41:30.455Z,47.70
2018-10-18T13:43:57.997Z,47.70
2018-10-18T13:48:52.938Z,48.00
2018-10-18T13:51:20.665Z,47.30
2018-10-18T13:53:48.216Z,46.80
2018-10-18T13:56:15.819Z,46.70
2018-10-18T13:58:43.352Z,46.90
2018-10-18T14:01:10.920Z,46.90
2018-10-18T14:03:38.502Z,46.70
2018-10-18T14:06:06.176Z,46.10
2018-10-18T14:11:01.418Z,44.70
2018-10-18T14:15:56.440Z,45.00
2018-10-18T14:18:23.983Z,45.70
2018-10-18T14:20:51.522Z,46.30
2018-10-18T14:23:19.194Z,47.10
2018-10-18T14:25:46.608Z,47.60
2018-10-18T14:30:41.962Z,47.60
2018-10-18T14:33:09.597Z,47.20
2018-10-18T14:35:37.184Z,46.60
2018-10-18T14:38:04.774Z,45.70
2018-10-18T14:40:32.297Z,45.50
2018-10-18T14:42:59.865Z,44.70
2018-10-18T14:47:54.849Z,43.40
2018-10-18T14:50:22.516Z,42.60
2018-10-18T14:52:49.993Z,45.80
2018-10-18T14:55:17.609Z,43.40
2018-10-18T14:57:45.229Z,43.90
2018-10-18T15:00:13.476Z,45.10
2018-10-18T15:02:41.293Z,46.00
2018-10-18T15:05:10.887Z,47.60
2018-10-18T15:10:08.549Z,48.70
2018-10-18T15:12:36.194Z,48.70
2018-10-18T15:15:03.995Z,48.20
2018-10-18T15:17:31.578Z,49.30
2018-10-18T15:19:59.157Z,50.00
2018-10-18T15:22:26.673Z,50.00
2018-10-18T15:24:54.255Z,50.40
2018-10-18T15:27:22.001Z,50.60
2018-10-18T15:29:49.910Z,51.20
2018-10-18T15:32:17.484Z,51.50
2018-10-18T15:34:45.037Z,51.30
2018-10-18T15:37:12.625Z,51.30
2018-10-18T15:39:40.406Z,51.40
2018-10-18T15:42:08.072Z,52.00
2018-10-18T15:44:35.840Z,52.00
2018-10-18T15:47:03.704Z,52.10
2018-10-18T15:49:31.320Z,52.50
2018-10-18T15:51:58.934Z,52.50
2018-10-18T15:54:26.659Z,52.80
2018-10-18T15:56:54.139Z,52.70
2018-10-18T16:01:49.228Z,53.10
2018-10-18T16:04:16.782Z,53.10
2018-10-18T16:06:44.392Z,53.90
2018-10-18T16:09:13.014Z,53.80
2018-10-18T16:11:40.552Z,53.80
2018-10-18T16:14:08.245Z,53.80
2018-10-18T16:16:35.751Z,53.80
2018-10-18T16:19:03.708Z,54.40
2018-10-18T16:21:31.240Z,54.30
2018-10-18T16:23:59.030Z,54.10
2018-10-18T16:26:26.627Z,54.90
2018-10-18T16:28:54.238Z,55.30
2018-10-18T16:31:21.766Z,55.30
2018-10-18T16:33:49.403Z,55.60
2018-10-18T16:36:16.869Z,56.20
2018-10-18T16:38:44.425Z,56.20
2018-10-18T16:41:12.159Z,56.30
2018-10-18T16:43:39.604Z,56.20
2018-10-18T16:46:07.232Z,56.40
2018-10-18T16:48:34.785Z,56.50
2018-10-18T16:51:02.338Z,56.70
2018-10-18T16:53:29.954Z,56.90
2018-10-18T16:55:57.829Z,56.90
2018-10-18T16:58:25.529Z,56.80
2018-10-18T17:00:53.133Z,56.90
2018-10-18T17:03:20.689Z,56.80
2018-10-18T17:05:48.326Z,57.00
2018-10-18T17:08:16.131Z,57.50
2018-10-18T17:10:43.676Z,58.00
2018-10-18T17:13:11.233Z,57.70
2018-10-18T17:15:38.872Z,57.70
2018-10-18T17:18:06.521Z,57.70
2018-10-18T17:20:34.188Z,57.80
2018-10-18T17:23:01.990Z,58.10
2018-10-18T17:25:29.609Z,58.60
2018-10-18T17:27:57.586Z,58.30
2018-10-18T17:30:25.301Z,58.20
2018-10-18T17:32:52.957Z,58.20
2018-10-18T17:35:20.668Z,58.30
2018-10-18T17:37:48.322Z,58.50
2018-10-18T17:40:16.035Z,58.50
2018-10-18T17:42:43.583Z,59.00
2018-10-18T17:45:11.950Z,59.30
2018-10-18T17:47:40.132Z,59.20
2018-10-18T17:50:08.216Z,59.00
2018-10-18T17:52:36.069Z,59.50
2018-10-18T17:55:04.496Z,60.10
2018-10-18T17:57:32.233Z,60.00
2018-10-18T17:59:59.972Z,60.20
2018-10-18T18:02:27.492Z,59.70
2018-10-18T18:04:55.070Z,59.70
2018-10-18T18:07:22.681Z,60.00
2018-10-18T18:09:50.377Z,60.50
2018-10-18T18:12:17.975Z,60.20
2018-10-18T18:14:45.574Z,60.90
2018-10-18T18:17:13.241Z,60.70
2018-10-18T18:19:40.804Z,61.20
2018-10-18T18:22:08.419Z,60.30
2018-10-18T18:24:35.963Z,60.00
2018-10-18T18:27:03.836Z,59.80
2018-10-18T18:31:58.976Z,59.50
2018-10-18T18:34:26.579Z,59.90
2018-10-18T18:36:54.191Z,59.80
2018-10-18T18:39:22.537Z,59.80
2018-10-18T18:41:50.178Z,59.90
2018-10-18T18:46:57.923Z,59.80
2018-10-18T18:49:25.598Z,59.80
2018-10-18T18:51:53.155Z,59.70
2018-10-18T18:54:20.803Z,59.70
2018-10-18T18:56:48.467Z,59.70
2018-10-18T18:59:16.029Z,59.60
2018-10-18T19:01:43.636Z,59.60
2018-10-18T19:04:11.325Z,59.60
2018-10-18T19:06:38.981Z,60.20
2018-10-18T19:09:07.556Z,59.80
2018-10-18T19:11:35.155Z,59.60
2018-10-18T19:14:02.759Z,59.60
2018-10-18T19:16:30.402Z,60.00
2018-10-18T19:18:57.961Z,60.40
2018-10-18T19:21:25.989Z,59.70
2018-10-18T19:23:53.534Z,60.70
2018-10-18T19:26:21.142Z,60.50
2018-10-18T19:28:48.720Z,60.30
2018-10-18T19:31:18.330Z,60.50
2018-10-18T19:33:46.201Z,60.70
2018-10-18T19:36:13.832Z,60.80
2018-10-18T19:38:43.466Z,60.60
2018-10-18T19:41:11.231Z,60.30
2018-10-18T19:43:39.299Z,60.90
2018-10-18T19:46:06.998Z,60.90
2018-10-18T19:53:32.646Z,60.20
2018-10-18T19:56:00.283Z,60.30
2018-10-18T20:03:22.966Z,60.10
2018-10-18T20:08:19.652Z,60.60
2018-10-18T20:10:47.333Z,61.20
2018-10-18T20:13:15.583Z,60.80
2018-10-18T20:15:43.167Z,60.80
2018-10-18T20:18:10.885Z,61.00
2018-10-18T20:20:40.655Z,61.20
2018-10-18T20:23:10.353Z,61.60
2018-10-18T20:30:34.018Z,61.50
2018-10-18T20:33:02.351Z,61.40
2018-10-18T20:35:30.022Z,61.10
2018-10-18T20:37:57.701Z,61.40
2018-10-18T20:40:25.380Z,60.90
2018-10-18T20:42:53.043Z,61.10
2018-10-18T20:45:26.611Z,61.60
2018-10-18T20:47:54.585Z,62.00
2018-10-18T20:52:50.702Z,62.40
2018-10-18T20:55:18.574Z,62.60
2018-10-18T21:00:16.742Z,62.30
2018-10-18T21:02:44.423Z,62.50
2018-10-18T21:05:12.063Z,62.50
2018-10-18T21:07:39.657Z,62.40
2018-10-18T21:10:07.233Z,62.50
2018-10-18T21:12:37.451Z,62.40
2018-10-18T21:15:05.236Z,62.30
2018-10-18T21:17:32.754Z,62.40
2018-10-18T21:20:00.387Z,62.30
2018-10-18T21:22:28.992Z,62.30
2018-10-18T21:27:24.520Z,61.60
2018-10-18T21:29:52.044Z,62.20
2018-10-18T21:32:19.669Z,61.70
2018-10-18T21:34:47.374Z,62.10
2018-10-18T21:37:14.987Z,62.10
2018-10-18T21:39:42.570Z,61.90
2018-10-18T21:42:10.093Z,61.40
2018-10-18T21:44:37.892Z,61.70
2018-10-18T21:47:05.596Z,60.90
2018-10-18T21:49:33.149Z,60.30
2018-10-18T21:52:00.828Z,60.70
2018-10-18T21:54:28.440Z,60.50
2018-10-18T21:56:56.505Z,60.50
2018-10-18T21:59:24.027Z,60.50
2018-10-18T22:01:51.661Z,61.10
2018-10-18T22:04:19.292Z,61.10
2018-10-18T22:06:47.341Z,61.80
2018-10-18T22:09:15.467Z,60.60
2018-10-18T22:11:42.950Z,61.00
2018-10-18T22:14:10.559Z,60.80
2018-10-18T22:16:39.015Z,60.50
2018-10-18T22:19:07.629Z,60.80
2018-10-18T22:21:35.735Z,60.80
2018-10-18T22:24:03.280Z,60.60
2018-10-18T22:26:30.851Z,61.00
2018-10-18T22:28:58.509Z,61.40
2018-10-18T22:31:26.166Z,60.60
2018-10-18T22:33:53.792Z,60.60
2018-10-18T22:36:21.811Z,60.80
2018-10-18T22:38:49.370Z,60.40
2018-10-18T22:41:16.892Z,61.30
2018-10-18T22:43:44.529Z,60.30
2018-10-18T22:46:12.111Z,60.00
2018-10-18T22:48:39.630Z,60.60
2018-10-18T22:51:07.264Z,60.60
2018-10-18T22:53:34.718Z,59.90
2018-10-18T22:56:02.305Z,60.50
2018-10-18T22:58:29.921Z,59.60
2018-10-18T23:00:57.448Z,60.10
2018-10-18T23:03:25.021Z,59.20
2018-10-18T23:08:20.075Z,58.60
2018-10-18T23:10:47.671Z,59.10
2018-10-18T23:15:42.740Z,59.00
2018-10-18T23:18:10.626Z,60.00
2018-10-18T23:20:39.131Z,59.70
2018-10-18T23:23:06.965Z,59.60
2018-10-18T23:25:34.545Z,59.70
2018-10-18T23:28:02.161Z,60.20
2018-10-18T23:30:29.705Z,60.30
2018-10-18T23:32:57.251Z,59.60
2018-10-18T23:35:24.786Z,60.30
2018-10-18T23:37:52.309Z,59.80
2018-10-18T23:40:19.889Z,60.50
2018-10-18T23:42:47.482Z,59.70
2018-10-18T23:45:15.057Z,59.20
2018-10-18T23:47:42.564Z,59.80
2018-10-18T23:50:10.111Z,59.40
2018-10-18T23:52:37.668Z,59.40
2018-10-18T23:55:06.382Z,59.90
2018-10-18T23:57:34.054Z,58.90
